createdAt,value
2022-11-02T00:01:45.129Z,7.88
2022-11-02T00:06:46.528Z,5.47
2022-11-02T00:11:47.786Z,6.07
2022-11-02T00:16:49.567Z,8.60
2022-11-02T00:21:51.033Z,6.30
2022-11-02T00:26:53.714Z,8.88
2022-11-02T00:31:55.047Z,9.20
2022-11-02T00:36:56.357Z,8.52
2022-11-02T00:41:57.631Z,7.53
2022-11-02T00:46:58.981Z,6.65
2022-11-02T00:52:00.300Z,8.02
2022-11-02T01:02:08.121Z,9.07
2022-11-02T01:07:09.551Z,7.32
2022-11-02T01:12:11.087Z,6.43
2022-11-02T01:17:12.459Z,6.45
2022-11-02T01:22:13.759Z,5.20
2022-11-02T01:27:15.224Z,9.13
2022-11-02T01:32:16.527Z,8.32
2022-11-02T01:37:17.865Z,6.18
2022-11-02T01:42:25.881Z,8.00
2022-11-02T01:47:32.701Z,10.90
2022-11-02T01:52:39.172Z,9.63
2022-11-02T01:57:43.395Z,6.22
2022-11-02T02:02:51.400Z,6.82
2022-11-02T02:07:54.643Z,5.90
2022-11-02T02:12:56.000Z,7.00
2022-11-02T02:18:12.161Z,7.20
2022-11-02T02:23:36.958Z,6.53
2022-11-02T02:33:55.172Z,8.27
2022-11-02T02:39:12.111Z,5.47
2022-11-02T02:44:20.422Z,9.60
2022-11-02T02:49:27.331Z,7.93
2022-11-02T02:54:37.035Z,7.97
2022-11-02T02:59:43.913Z,5.03
2022-11-02T03:04:45.303Z,6.78
2022-11-02T03:09:51.756Z,7.22
2022-11-02T03:15:11.175Z,5.35
2022-11-02T03:20:37.318Z,4.38
2022-11-02T03:26:00.250Z,7.55
2022-11-02T03:31:28.245Z,4.90
2022-11-02T03:36:37.691Z,8.93
2022-11-02T03:41:43.772Z,5.35
2022-11-02T03:46:46.535Z,4.20
2022-11-02T03:51:49.986Z,4.82
2022-11-02T03:56:56.574Z,6.95
2022-11-02T04:01:59.804Z,5.68
2022-11-02T04:07:01.282Z,7.85
2022-11-02T04:12:21.283Z,7.03
2022-11-02T04:17:41.095Z,5.82
2022-11-02T04:23:00.849Z,4.95
2022-11-02T04:28:08.514Z,5.07
2022-11-02T04:33:28.584Z,6.95
2022-11-02T04:38:43.021Z,7.85
2022-11-02T04:43:44.426Z,6.80
2022-11-02T04:48:46.281Z,6.30
2022-11-02T04:53:48.782Z,5.28
2022-11-02T04:58:52.163Z,9.70
2022-11-02T05:03:55.990Z,6.38
2022-11-02T05:08:57.265Z,12.23
2022-11-02T05:13:58.563Z,7.18
2022-11-02T05:18:59.859Z,5.45
2022-11-02T05:24:01.237Z,6.93
2022-11-02T05:29:02.546Z,7.22
2022-11-02T05:34:03.840Z,6.72
2022-11-02T05:39:05.157Z,5.95
2022-11-02T05:44:06.554Z,8.30
2022-11-02T05:49:07.896Z,7.47
2022-11-02T05:54:09.168Z,8.77
2022-11-02T05:59:10.502Z,5.70
2022-11-02T06:04:11.835Z,9.13
2022-11-02T06:09:13.272Z,4.03
2022-11-02T06:14:14.557Z,5.03
2022-11-02T06:19:15.883Z,12.10
2022-11-02T06:24:17.198Z,8.18
2022-11-02T06:29:18.474Z,8.90
2022-11-02T06:34:19.826Z,9.40
2022-11-02T06:39:21.475Z,7.30
2022-11-02T06:44:23.847Z,7.25
2022-11-02T06:49:25.179Z,6.50
2022-11-02T06:54:26.534Z,6.40
2022-11-02T06:59:27.844Z,5.78
2022-11-02T07:04:29.171Z,7.20
2022-11-02T07:09:30.525Z,8.52
2022-11-02T07:14:31.918Z,4.85
2022-11-02T07:19:33.479Z,8.75
2022-11-02T07:24:34.883Z,5.65
2022-11-02T07:29:36.152Z,8.05
2022-11-02T07:34:37.533Z,9.43
2022-11-02T07:39:38.850Z,6.60
2022-11-02T07:44:40.188Z,8.50
2022-11-02T07:49:41.568Z,10.73
2022-11-02T07:54:44.735Z,10.75
2022-11-02T07:59:46.284Z,10.60
2022-11-02T08:04:47.563Z,5.60
2022-11-02T08:09:48.900Z,7.03
2022-11-02T08:14:50.339Z,8.07
2022-11-02T08:19:51.656Z,4.72
2022-11-02T08:24:52.975Z,6.25
2022-11-02T08:29:54.324Z,5.75
2022-11-02T08:34:55.746Z,9.25
2022-11-02T08:39:57.105Z,8.43
2022-11-02T08:44:58.681Z,6.93
2022-11-02T08:50:00.046Z,7.22
2022-11-02T08:55:01.547Z,9.25
2022-11-02T09:00:03.387Z,9.10
2022-11-02T09:05:05.128Z,7.35
2022-11-02T09:10:07.646Z,10.35
2022-11-02T09:15:09.335Z,5.85
2022-11-02T09:20:10.638Z,5.93
2022-11-02T09:25:13.319Z,7.97
2022-11-02T09:30:14.704Z,8.15
2022-11-02T09:35:16.051Z,6.57
2022-11-02T09:40:21.530Z,7.97
2022-11-02T09:45:23.403Z,6.78
2022-11-02T09:50:33.932Z,8.30
2022-11-02T09:55:37.601Z,6.93
2022-11-02T10:00:41.951Z,6.43
2022-11-02T10:05:53.004Z,3.38
2022-11-02T10:11:18.709Z,5.95
2022-11-02T10:16:25.011Z,6.28
2022-11-02T10:21:32.455Z,7.85
2022-11-02T10:26:37.307Z,4.72
2022-11-02T10:31:38.630Z,5.50
2022-11-02T10:37:07.603Z,9.25
2022-11-02T10:42:40.128Z,5.22
2022-11-02T10:48:07.802Z,4.07
2022-11-02T10:53:39.335Z,7.97
2022-11-02T10:58:40.713Z,3.65
2022-11-02T11:03:56.583Z,5.05
2022-11-02T11:09:20.138Z,3.97
2022-11-02T11:19:52.974Z,3.97
2022-11-02T11:25:27.561Z,3.67
2022-11-02T11:35:57.783Z,3.70
2022-11-02T11:41:00.006Z,3.90
2022-11-02T11:46:06.594Z,3.00
2022-11-02T11:51:36.892Z,5.13
2022-11-02T11:56:38.265Z,4.43
2022-11-02T12:01:40.284Z,3.70
2022-11-02T12:06:55.396Z,3.13
2022-11-02T12:12:24.528Z,6.07
2022-11-02T12:17:46.766Z,6.03
2022-11-02T12:23:18.970Z,3.58
2022-11-02T12:28:29.989Z,4.95
2022-11-02T12:34:05.343Z,4.25
2022-11-02T12:39:45.786Z,4.75
2022-11-02T12:45:26.456Z,4.22
2022-11-02T12:50:52.300Z,4.30
2022-11-02T12:55:57.765Z,4.35
2022-11-02T13:01:13.325Z,5.65
2022-11-02T13:06:19.550Z,4.35
2022-11-02T13:11:31.727Z,3.95
2022-11-02T13:16:54.619Z,4.05
2022-11-02T13:21:58.147Z,3.33
2022-11-02T13:27:21.687Z,3.75
2022-11-02T13:32:46.857Z,4.00
2022-11-02T13:37:55.279Z,5.03
2022-11-02T13:43:07.201Z,5.43
2022-11-02T13:48:27.150Z,3.97
2022-11-02T13:53:37.287Z,3.45
2022-11-02T13:58:46.701Z,2.60
2022-11-02T14:04:00.476Z,2.83
2022-11-02T14:09:07.559Z,2.83
2022-11-02T14:14:11.900Z,3.30
2022-11-02T14:19:21.999Z,4.13
2022-11-02T14:24:32.360Z,5.43
2022-11-02T14:29:44.684Z,4.88
2022-11-02T14:35:23.887Z,4.30
2022-11-02T14:40:36.120Z,5.85
2022-11-02T14:45:50.295Z,3.75
2022-11-02T14:51:16.160Z,3.35
2022-11-02T14:56:17.551Z,4.65
2022-11-02T15:01:19.644Z,4.28
2022-11-02T15:06:26.856Z,5.78
2022-11-02T15:11:49.521Z,6.30
2022-11-02T15:16:50.901Z,5.75
2022-11-02T15:21:53.171Z,4.88
2022-11-02T15:27:00.256Z,5.53
2022-11-02T15:32:03.592Z,3.15
2022-11-02T15:37:05.715Z,5.80
2022-11-02T15:42:36.023Z,5.78
2022-11-02T15:47:56.059Z,3.55
2022-11-02T15:53:22.247Z,3.47
2022-11-02T16:03:33.687Z,6.15
2022-11-02T16:08:37.839Z,4.20
2022-11-02T16:13:55.694Z,8.25
2022-11-02T16:19:01.110Z,5.82
2022-11-02T16:24:02.453Z,6.28
2022-11-02T16:29:08.450Z,7.70
2022-11-02T16:34:21.965Z,5.22
2022-11-02T16:39:39.459Z,5.83
2022-11-02T16:44:43.054Z,7.18
2022-11-02T16:49:57.628Z,9.90
2022-11-02T16:54:59.198Z,7.28
2022-11-02T17:00:04.973Z,6.07
2022-11-02T17:05:18.077Z,8.77
2022-11-02T17:10:23.841Z,7.38
2022-11-02T17:15:27.164Z,8.98
2022-11-02T17:20:29.084Z,9.60
2022-11-02T17:25:48.465Z,8.20
2022-11-02T17:30:51.562Z,6.07
2022-11-02T17:35:56.463Z,7.68
2022-11-02T17:40:59.605Z,8.50
2022-11-02T17:46:01.107Z,7.53
2022-11-02T17:51:02.468Z,4.47
2022-11-02T17:56:04.187Z,6.55
2022-11-02T18:01:05.891Z,7.78
2022-11-02T18:06:07.545Z,7.95
2022-11-02T18:11:09.056Z,5.82
2022-11-02T18:16:10.536Z,7.82
2022-11-02T18:21:12.088Z,6.40
2022-11-02T18:26:13.879Z,9.90
2022-11-02T18:31:15.249Z,7.38
2022-11-02T18:36:16.593Z,8.75
2022-11-02T18:41:30.804Z,7.70
2022-11-02T18:46:32.550Z,9.95
2022-11-02T18:51:33.968Z,8.82
2022-11-02T18:56:35.374Z,11.73
2022-11-02T19:01:36.918Z,12.90
2022-11-02T19:06:57.130Z,9.50
2022-11-02T19:12:05.253Z,9.98
2022-11-02T19:17:08.283Z,9.75
2022-11-02T19:22:13.036Z,10.35
2022-11-02T19:27:16.849Z,11.13
2022-11-02T19:32:18.866Z,13.82
2022-11-02T19:37:20.241Z,10.90
2022-11-02T19:42:21.544Z,9.27
2022-11-02T19:47:22.896Z,11.73
2022-11-02T19:52:24.504Z,9.10
2022-11-02T19:57:29.377Z,13.02
2022-11-02T20:02:34.449Z,9.98
2022-11-02T20:07:35.814Z,13.00
2022-11-02T20:12:37.097Z,11.23
2022-11-02T20:17:52.376Z,9.65
2022-11-02T20:22:59.870Z,10.35
2022-11-02T20:28:01.195Z,12.50
2022-11-02T20:33:02.512Z,13.48
2022-11-02T20:38:04.309Z,14.88
2022-11-02T20:43:06.944Z,8.57
2022-11-02T20:48:08.586Z,9.07
2022-11-02T20:53:10.125Z,10.48
2022-11-02T20:58:11.547Z,11.70
2022-11-02T21:03:13.726Z,13.05
2022-11-02T21:08:15.551Z,13.65
2022-11-02T21:13:35.402Z,15.15
2022-11-02T21:18:37.055Z,10.77
2022-11-02T21:23:38.418Z,10.82
2022-11-02T21:28:42.121Z,8.13
2022-11-02T21:33:44.610Z,8.80
2022-11-02T21:38:46.902Z,10.65
2022-11-02T21:43:51.771Z,12.77
2022-11-02T21:48:55.124Z,10.57
2022-11-02T21:53:56.759Z,7.93
2022-11-02T21:58:58.287Z,9.60
2022-11-02T22:04:00.112Z,8.77
2022-11-02T22:09:01.893Z,10.15
2022-11-02T22:14:03.698Z,11.25
2022-11-02T22:19:10.403Z,8.82
2022-11-02T22:24:12.393Z,8.70
2022-11-02T22:29:13.689Z,8.75
2022-11-02T22:34:15.655Z,11.82
2022-11-02T22:39:17.048Z,11.98
2022-11-02T22:44:20.951Z,9.30
2022-11-02T22:49:22.303Z,6.00
2022-11-02T22:54:23.646Z,11.05
2022-11-02T22:59:24.935Z,11.98
2022-11-02T23:04:26.279Z,9.25
2022-11-02T23:09:27.563Z,10.48
2022-11-02T23:14:28.897Z,10.20
2022-11-02T23:19:30.431Z,9.43
2022-11-02T23:24:50.476Z,8.77
2022-11-02T23:30:10.303Z,9.18
2022-11-02T23:35:30.261Z,7.03
2022-11-02T23:40:32.658Z,8.95
2022-11-02T23:45:34.640Z,9.77
2022-11-02T23:50:54.937Z,10.77
2022-11-02T23:56:15.699Z,8.13
